createdAt,value
2022-10-08T00:02:04.412Z,99521.72
2022-10-08T00:07:07.550Z,99510.97
2022-10-08T00:12:10.227Z,99496.34
2022-10-08T00:17:14.280Z,99507.66
2022-10-08T00:22:17.056Z,99504.16
2022-10-08T00:27:23.708Z,99498.38
2022-10-08T00:32:27.750Z,99502.06
2022-10-08T00:37:30.501Z,99500.41
2022-10-08T00:42:33.273Z,99495.44
2022-10-08T00:47:43.869Z,99498.50
2022-10-08T00:52:48.585Z,99489.88
2022-10-08T00:57:52.267Z,99487.00
2022-10-08T01:02:56.511Z,99492.94
2022-10-08T01:08:04.301Z,99488.41
2022-10-08T01:13:17.745Z,99483.03
2022-10-08T01:18:25.414Z,99486.75
2022-10-08T01:23:40.123Z,99487.78
2022-10-08T01:28:46.998Z,99487.16
2022-10-08T01:33:52.803Z,99481.34
2022-10-08T01:38:58.719Z,99484.88
2022-10-08T01:44:05.724Z,99485.88
2022-10-08T01:49:11.761Z,99482.75
2022-10-08T01:54:16.314Z,99475.53
2022-10-08T01:59:23.355Z,99471.41
2022-10-08T02:04:37.135Z,99469.53
2022-10-08T02:09:42.221Z,99472.22
2022-10-08T02:14:48.210Z,99468.94
2022-10-08T02:19:54.946Z,99475.94
2022-10-08T02:25:01.163Z,99474.28
2022-10-08T02:30:09.123Z,99471.97
2022-10-08T02:35:15.016Z,99474.28
2022-10-08T02:40:18.718Z,99467.25
2022-10-08T02:45:25.415Z,99461.91
2022-10-08T02:50:30.157Z,99466.44
2022-10-08T02:55:38.930Z,99464.41
2022-10-08T03:00:49.958Z,99460.03
2022-10-08T03:05:53.910Z,99452.84
2022-10-08T03:10:57.047Z,99451.81
2022-10-08T03:16:01.139Z,99448.31
2022-10-08T03:21:04.303Z,99449.97
2022-10-08T03:26:07.154Z,99449.16
2022-10-08T03:31:11.415Z,99440.72
2022-10-08T03:36:14.144Z,99452.84
2022-10-08T03:41:17.310Z,99450.19
2022-10-08T03:46:21.379Z,99447.50
2022-10-08T03:51:24.567Z,99466.88
2022-10-08T03:56:27.332Z,99466.03
2022-10-08T04:01:31.510Z,99474.09
2022-10-08T04:06:34.234Z,99490.38
2022-10-08T04:11:36.966Z,99488.50
2022-10-08T04:16:41.005Z,99489.50
2022-10-08T04:21:43.662Z,99494.69
2022-10-08T04:26:46.429Z,99498.41
2022-10-08T04:31:50.422Z,99513.44
2022-10-08T04:36:53.133Z,99513.44
2022-10-08T04:41:55.997Z,99512.63
2022-10-08T04:47:00.086Z,99504.97
2022-10-08T04:52:02.914Z,99513.63
2022-10-08T04:57:05.603Z,99523.72
2022-10-08T05:02:09.671Z,99524.56
2022-10-08T05:07:12.398Z,99531.94
2022-10-08T05:12:15.092Z,99530.31
2022-10-08T05:17:19.142Z,99527.63
2022-10-08T05:22:21.911Z,99517.72
2022-10-08T05:27:24.615Z,99531.53
2022-10-08T05:32:28.653Z,99528.19
2022-10-08T05:37:31.355Z,99531.88
2022-10-08T05:42:34.152Z,99541.59
2022-10-08T05:47:38.188Z,99536.41
2022-10-08T05:52:40.878Z,99541.75
2022-10-08T05:57:43.599Z,99544.66
2022-10-08T06:02:50.842Z,99553.50
2022-10-08T06:07:57.367Z,99558.66
2022-10-08T06:13:00.090Z,99574.72
2022-10-08T06:18:04.242Z,99578.28
2022-10-08T06:23:06.943Z,99587.94
2022-10-08T06:28:09.715Z,99587.94
2022-10-08T06:33:16.260Z,99592.03
2022-10-08T06:38:19.132Z,99617.41
2022-10-08T06:43:21.881Z,99619.06
2022-10-08T06:48:25.983Z,99625.47
2022-10-08T06:53:29.097Z,99627.09
2022-10-08T06:58:32.238Z,99637.81
2022-10-08T07:03:36.830Z,99647.91
2022-10-08T07:08:40.245Z,99659.47
2022-10-08T07:13:43.371Z,99669.97
2022-10-08T07:18:49.078Z,99671.66
2022-10-08T07:23:52.863Z,99691.22
2022-10-08T07:28:57.832Z,99697.41
2022-10-08T07:34:03.229Z,99702.78
2022-10-08T07:39:07.426Z,99706.28
2022-10-08T07:44:12.091Z,99706.66
2022-10-08T07:49:17.255Z,99720.53
2022-10-08T07:54:20.941Z,99725.88
2022-10-08T07:59:23.628Z,99736.88
2022-10-08T08:04:27.799Z,99744.53
2022-10-08T08:09:30.794Z,99748.31
2022-10-08T08:14:33.546Z,99754.00
2022-10-08T08:19:40.197Z,99766.56
2022-10-08T08:24:42.977Z,99763.16
2022-10-08T08:29:45.775Z,99766.69
2022-10-08T08:34:49.818Z,99770.47
2022-10-08T08:39:52.499Z,99774.16
2022-10-08T08:44:58.598Z,99788.19
2022-10-08T08:50:04.557Z,99791.88
2022-10-08T08:55:12.404Z,99794.84
2022-10-08T09:00:17.152Z,99791.53
2022-10-08T09:05:21.819Z,99810.06
2022-10-08T09:10:29.734Z,99814.16
2022-10-08T09:15:36.018Z,99812.31
2022-10-08T09:20:40.564Z,99814.69
2022-10-08T09:25:44.387Z,99819.94
2022-10-08T09:30:47.799Z,99817.41
2022-10-08T09:35:53.133Z,99821.97
2022-10-08T09:41:04.422Z,99830.31
2022-10-08T09:46:11.782Z,99834.34
2022-10-08T09:51:17.413Z,99838.91
2022-10-08T09:56:27.594Z,99855.59
2022-10-08T10:01:31.427Z,99861.63
2022-10-08T10:06:37.481Z,99855.03
2022-10-08T10:11:42.050Z,99858.09
2022-10-08T10:16:45.901Z,99866.03
2022-10-08T10:21:57.809Z,99865.66
2022-10-08T10:27:05.241Z,99875.41
2022-10-08T10:32:14.791Z,99884.09
2022-10-08T10:37:23.324Z,99883.06
2022-10-08T10:42:33.416Z,99880.38
2022-10-08T10:47:36.085Z,99875.00
2022-10-08T10:52:50.407Z,99880.38
2022-10-08T10:58:11.009Z,99877.69
2022-10-08T11:03:17.672Z,99878.50
2022-10-08T11:08:34.543Z,99876.66
2022-10-08T11:13:45.508Z,99886.38
2022-10-08T11:18:51.049Z,99886.00
2022-10-08T11:24:14.942Z,99877.94
2022-10-08T11:29:21.557Z,99876.91
2022-10-08T11:34:28.376Z,99889.31
2022-10-08T11:39:38.054Z,99894.88
2022-10-08T11:44:41.198Z,99894.06
2022-10-08T11:49:49.611Z,99905.63
2022-10-08T11:54:56.013Z,99895.91
2022-10-08T12:00:06.939Z,99893.63
2022-10-08T12:05:19.568Z,99893.38
2022-10-08T12:10:33.037Z,99898.09
2022-10-08T12:16:04.968Z,99895.41
2022-10-08T12:21:37.116Z,99885.50
2022-10-08T12:27:21.121Z,99896.41
2022-10-08T12:32:24.610Z,99900.97
2022-10-08T12:37:41.627Z,99904.94
2022-10-08T12:42:47.129Z,99905.59
2022-10-08T12:47:54.335Z,99897.78
2022-10-08T12:53:00.612Z,99903.16
2022-10-08T12:58:04.854Z,99906.66
2022-10-08T13:03:12.932Z,99908.28
2022-10-08T13:08:24.173Z,99910.41
2022-10-08T13:13:37.552Z,99923.47
2022-10-08T13:18:43.283Z,99916.91
2022-10-08T13:23:46.313Z,99927.25
2022-10-08T13:29:00.214Z,99924.66
2022-10-08T13:34:04.147Z,99927.19
2022-10-08T13:39:06.913Z,99927.56
2022-10-08T13:44:11.155Z,99928.00
2022-10-08T13:49:21.279Z,99931.13
2022-10-08T13:54:25.362Z,99926.59
2022-10-08T13:59:30.830Z,99931.59
2022-10-08T14:04:33.879Z,99929.09
2022-10-08T14:09:36.590Z,99932.81
2022-10-08T14:14:40.607Z,99944.56
2022-10-08T14:19:43.292Z,99942.53
2022-10-08T14:24:46.300Z,99948.94
2022-10-08T14:29:50.388Z,99946.81
2022-10-08T14:34:53.096Z,99961.88
2022-10-08T14:39:55.748Z,99956.25
2022-10-08T14:44:59.825Z,99959.31
2022-10-08T14:50:03.504Z,99953.69
2022-10-08T14:55:07.116Z,99949.31
2022-10-08T15:00:13.135Z,99961.94
2022-10-08T15:05:15.912Z,99962.94
2022-10-08T15:10:18.619Z,99971.81
2022-10-08T15:15:22.701Z,99959.38
2022-10-08T15:20:25.416Z,99968.47
2022-10-08T15:25:28.397Z,99961.00
2022-10-08T15:30:32.514Z,99960.81
2022-10-08T15:35:36.598Z,99961.19
2022-10-08T15:40:39.361Z,99970.25
2022-10-08T15:45:44.846Z,99967.97
2022-10-08T15:50:58.567Z,99968.75
2022-10-08T15:56:01.292Z,99981.97
2022-10-08T16:01:10.498Z,99993.91
2022-10-08T16:06:14.924Z,99993.78
2022-10-08T16:11:18.924Z,100010.28
2022-10-08T16:16:23.719Z,100001.97
2022-10-08T16:21:26.734Z,100006.72
2022-10-08T16:26:31.704Z,100002.91
2022-10-08T16:31:37.289Z,100019.03
2022-10-08T16:36:40.045Z,100031.19
2022-10-08T16:41:42.889Z,100035.25
2022-10-08T16:46:50.325Z,100037.28
2022-10-08T16:51:53.521Z,100050.25
2022-10-08T16:56:56.648Z,100066.75
2022-10-08T17:02:01.273Z,100062.75
2022-10-08T17:07:04.165Z,100070.19
2022-10-08T17:12:06.874Z,100076.75
2022-10-08T17:17:11.133Z,100087.22
2022-10-08T17:22:16.267Z,100090.06
2022-10-08T17:27:18.986Z,100097.47
2022-10-08T17:32:23.069Z,100110.22
2022-10-08T17:37:25.810Z,100117.00
2022-10-08T17:42:28.706Z,100139.47
2022-10-08T17:47:32.840Z,100144.38
2022-10-08T17:52:35.632Z,100142.72
2022-10-08T17:57:38.333Z,100154.66
2022-10-08T18:02:42.530Z,100156.66
2022-10-08T18:07:45.331Z,100162.69
2022-10-08T18:12:48.238Z,100172.03
2022-10-08T18:17:52.543Z,100170.38
2022-10-08T18:22:55.306Z,100169.91
2022-10-08T18:27:58.284Z,100174.13
2022-10-08T18:33:02.433Z,100178.56
2022-10-08T18:38:05.303Z,100197.69
2022-10-08T18:43:08.030Z,100198.06
2022-10-08T18:48:12.150Z,100206.84
2022-10-08T18:53:14.879Z,100210.66
2022-10-08T18:58:17.549Z,100204.84
2022-10-08T19:03:21.721Z,100213.22
2022-10-08T19:08:24.567Z,100217.94
2022-10-08T19:13:27.283Z,100220.34
2022-10-08T19:18:31.457Z,100227.50
2022-10-08T19:23:34.167Z,100229.72
2022-10-08T19:28:38.256Z,100232.09
2022-10-08T19:33:42.488Z,100229.44
2022-10-08T19:38:45.331Z,100240.50
2022-10-08T19:43:48.392Z,100243.34
2022-10-08T19:48:54.125Z,100242.88
2022-10-08T19:53:57.326Z,100249.25
2022-10-08T19:59:00.462Z,100251.94
2022-10-08T20:04:06.463Z,100264.69
2022-10-08T20:09:11.874Z,100261.50
2022-10-08T20:14:15.542Z,100264.38
2022-10-08T20:19:21.182Z,100261.84
2022-10-08T20:24:23.973Z,100272.94
2022-10-08T20:29:30.857Z,100278.44
2022-10-08T20:34:35.470Z,100280.31
2022-10-08T20:39:38.785Z,100286.00
2022-10-08T20:44:41.599Z,100287.19
2022-10-08T20:49:45.697Z,100299.09
2022-10-08T20:54:48.463Z,100290.41
2022-10-08T20:59:51.237Z,100289.91
2022-10-08T21:04:55.318Z,100293.63
2022-10-08T21:09:58.044Z,100296.44
2022-10-08T21:15:00.763Z,100292.28
2022-10-08T21:20:05.122Z,100297.78
2022-10-08T21:25:08.951Z,100295.97
2022-10-08T21:30:13.731Z,100303.34
2022-10-08T21:35:17.854Z,100293.97
2022-10-08T21:40:20.699Z,100298.84
2022-10-08T21:45:23.415Z,100313.06
2022-10-08T21:50:27.543Z,100312.41
2022-10-08T21:55:30.243Z,100303.72
2022-10-08T22:00:35.054Z,100309.25
2022-10-08T22:05:39.115Z,100305.88
2022-10-08T22:10:41.803Z,100311.75
2022-10-08T22:15:52.367Z,100309.41
2022-10-08T22:20:57.045Z,100309.59
2022-10-08T22:26:01.822Z,100311.41
2022-10-08T22:31:06.022Z,100311.78
2022-10-08T22:36:11.495Z,100305.09
2022-10-08T22:41:16.292Z,100309.59
2022-10-08T22:46:21.227Z,100303.59
2022-10-08T22:51:25.363Z,100298.59
2022-10-08T22:56:31.589Z,100303.25
2022-10-08T23:01:34.532Z,100297.06
2022-10-08T23:06:38.743Z,100292.00
2022-10-08T23:11:41.612Z,100299.56
2022-10-08T23:16:44.431Z,100292.53
2022-10-08T23:21:48.559Z,100281.16
2022-10-08T23:26:51.327Z,100292.34
2022-10-08T23:31:54.133Z,100289.34
2022-10-08T23:36:58.297Z,100284.34
2022-10-08T23:42:01.055Z,100276.66
2022-10-08T23:47:03.750Z,100284.69
2022-10-08T23:52:07.886Z,100281.34
2022-10-08T23:57:10.652Z,100281.69
